createdAt,value
2015-12-27T00:00:58.648Z,1014.7
2015-12-27T00:01:57.979Z,1014.6
2015-12-27T00:02:58.684Z,1014.7
2015-12-27T00:03:58.656Z,1014.7
2015-12-27T00:04:58.596Z,1014.7
2015-12-27T00:05:58.535Z,1014.6
2015-12-27T00:06:58.476Z,1014.7
2015-12-27T00:07:58.432Z,1014.7
2015-12-27T00:08:58.372Z,1014.7
2015-12-27T00:09:58.296Z,1014.8
2015-12-27T00:10:58.252Z,1014.7
2015-12-27T00:11:58.208Z,1014.7
2015-12-27T00:12:58.148Z,1014.6
2015-12-27T00:13:58.104Z,1014.6
2015-12-27T00:14:58.044Z,1014.6
2015-12-27T00:15:57.985Z,1014.6
2015-12-27T00:16:57.925Z,1014.7
2015-12-27T00:17:57.881Z,1014.5
2015-12-27T00:18:57.837Z,1014.6
2015-12-27T00:19:57.777Z,1014.5
2015-12-27T00:20:57.702Z,1014.6
2015-12-27T00:21:57.657Z,1014.6
2015-12-27T00:22:57.612Z,1014.7
2015-12-27T00:23:57.554Z,1014.6
2015-12-27T00:24:57.493Z,1014.6
2015-12-27T00:25:57.434Z,1014.5
2015-12-27T00:26:57.390Z,1014.5
2015-12-27T00:27:57.346Z,1014.4
2015-12-27T00:28:57.286Z,1014.5
2015-12-27T00:29:57.226Z,1014.6
2015-12-27T00:30:57.182Z,1014.5
2015-12-27T00:31:57.137Z,1014.5
2015-12-27T00:32:57.062Z,1014.6
2015-12-27T00:33:57.003Z,1014.5
2015-12-27T00:34:56.959Z,1014.4
2015-12-27T00:35:56.914Z,1014.5
2015-12-27T00:36:56.854Z,1014.4
2015-12-27T00:37:56.795Z,1014.4
2015-12-27T00:38:56.750Z,1014.3
2015-12-27T00:39:56.675Z,1014.5
2015-12-27T00:40:56.865Z,1014.4
2015-12-27T00:41:56.587Z,1014.4
2015-12-27T00:42:56.528Z,1014.4
2015-12-27T00:43:56.468Z,1014.3
2015-12-27T00:44:56.408Z,1014.4
2015-12-27T00:45:56.348Z,1014.4
2015-12-27T00:46:56.319Z,1014.4
2015-12-27T00:47:56.478Z,1014.4
2015-12-27T00:48:56.200Z,1014.4
2015-12-27T00:49:56.140Z,1014.3
2015-12-27T00:50:56.096Z,1014.3
2015-12-27T00:51:56.037Z,1014.4
2015-12-27T00:52:55.977Z,1014.4
2015-12-27T00:53:55.183Z,1014.4
2015-12-27T00:54:55.888Z,1014.4
2015-12-27T00:55:55.797Z,1014.4
2015-12-27T00:56:55.018Z,1014.5
2015-12-27T00:57:55.708Z,1014.4
2015-12-27T00:58:55.649Z,1014.5
2015-12-27T00:59:55.588Z,1014.4
2015-12-27T01:00:55.545Z,1014.5
2015-12-27T01:01:55.485Z,1014.5
2015-12-27T01:02:55.424Z,1014.4
2015-12-27T01:03:55.362Z,1014.4
2015-12-27T01:04:55.318Z,1014.3
2015-12-27T01:05:55.290Z,1014.5
2015-12-27T01:06:55.215Z,1014.3
2015-12-27T01:07:55.155Z,1014.5
2015-12-27T01:08:55.095Z,1014.4
2015-12-27T01:09:55.035Z,1014.5
2015-12-27T01:10:54.991Z,1014.4
2015-12-27T01:11:54.931Z,1014.4
2015-12-27T01:12:54.887Z,1014.4
2015-12-27T01:13:54.827Z,1014.5
2015-12-27T01:14:54.768Z,1014.5
2015-12-27T01:15:54.912Z,1014.5
2015-12-27T01:16:54.665Z,1014.5
2015-12-27T01:17:54.808Z,1014.5
2015-12-27T01:18:54.748Z,1014.5
2015-12-27T01:19:54.500Z,1014.5
2015-12-27T01:20:54.440Z,1014.4
2015-12-27T01:22:24.212Z,1014.5
2015-12-27T01:22:54.337Z,1014.4
2015-12-27T01:23:54.277Z,1014.5
2015-12-27T01:24:54.265Z,1014.5
2015-12-27T01:25:54.173Z,1014.4
2015-12-27T01:26:54.145Z,1014.4
2015-12-27T01:27:54.070Z,1014.4
2015-12-27T01:28:54.025Z,1014.5
2015-12-27T01:29:54.200Z,1014.4
2015-12-27T01:30:53.906Z,1014.4
2015-12-27T01:31:53.845Z,1014.4
2015-12-27T01:32:53.801Z,1014.3
2015-12-27T01:33:53.726Z,1014.3
2015-12-27T01:34:53.681Z,1014.3
2015-12-27T01:35:52.888Z,1014.4
2015-12-27T01:36:53.594Z,1014.3
2015-12-27T01:37:53.518Z,1014.2
2015-12-27T01:38:53.475Z,1014.2
2015-12-27T01:39:53.415Z,1014.3
2015-12-27T01:40:53.370Z,1014.3
2015-12-27T01:41:53.295Z,1014.4
2015-12-27T01:42:53.251Z,1014.3
2015-12-27T01:43:53.207Z,1014.4
2015-12-27T01:44:53.147Z,1014.5
2015-12-27T01:45:53.072Z,1014.3
2015-12-27T01:46:53.028Z,1014.3
2015-12-27T01:47:52.984Z,1014.4
2015-12-27T01:48:52.923Z,1014.3
2015-12-27T01:49:52.864Z,1014.3
2015-12-27T01:50:52.803Z,1014.4
2015-12-27T01:51:52.760Z,1014.3
2015-12-27T01:52:52.684Z,1014.3
2015-12-27T01:53:52.641Z,1014.3
2015-12-27T01:54:52.580Z,1014.3
2015-12-27T01:55:52.536Z,1014.2
2015-12-27T01:56:52.477Z,1014.3
2015-12-27T01:57:52.433Z,1014.3
2015-12-27T01:58:52.373Z,1014.3
2015-12-27T01:59:52.326Z,1014.3
2015-12-27T02:00:52.266Z,1014.3
2015-12-27T02:01:52.204Z,1014.3
2015-12-27T02:02:52.379Z,1014.4
2015-12-27T02:03:52.101Z,1014.3
2015-12-27T02:04:52.041Z,1014.3
2015-12-27T02:05:51.981Z,1014.4
2015-12-27T02:06:52.125Z,1014.3
2015-12-27T02:07:51.924Z,1014.3
2015-12-27T02:08:52.036Z,1014.4
2015-12-27T02:09:51.773Z,1014.3
2015-12-27T02:10:51.714Z,1014.3
2015-12-27T02:11:51.669Z,1014.4
2015-12-27T02:12:51.609Z,1014.3
2015-12-27T02:13:51.550Z,1014.5
2015-12-27T02:14:51.489Z,1014.4
2015-12-27T02:15:51.447Z,1014.3
2015-12-27T02:16:51.387Z,1014.4
2015-12-27T02:17:51.561Z,1014.4
2015-12-27T02:18:51.283Z,1014.4
2015-12-27T02:19:51.238Z,1014.5
2015-12-27T02:20:51.163Z,1014.5
2015-12-27T02:21:51.119Z,1014.4
2015-12-27T02:22:51.074Z,1014.5
2015-12-27T02:23:51.014Z,1014.5
2015-12-27T02:24:51.189Z,1014.5
2015-12-27T02:25:50.895Z,1014.4
2015-12-27T02:26:50.867Z,1014.5
2015-12-27T02:27:50.807Z,1014.5
2015-12-27T02:28:50.746Z,1014.5
2015-12-27T02:29:50.891Z,1014.4
2015-12-27T02:30:50.644Z,1014.4
2015-12-27T02:31:50.583Z,1014.5
2015-12-27T02:32:50.524Z,1014.5
2015-12-27T02:33:50.666Z,1014.5
2015-12-27T02:34:50.419Z,1014.5
2015-12-27T02:35:50.360Z,1014.4
2015-12-27T02:36:50.300Z,1014.5
2015-12-27T02:37:50.240Z,1014.6
2015-12-27T02:38:50.212Z,1014.4
2015-12-27T02:39:50.152Z,1014.6
2015-12-27T02:40:50.093Z,1014.5
2015-12-27T02:41:50.033Z,1014.6
2015-12-27T02:42:49.988Z,1014.5
2015-12-27T02:43:50.116Z,1014.5
2015-12-27T02:44:49.885Z,1014.5
2015-12-27T02:45:49.825Z,1014.5
2015-12-27T02:46:49.749Z,1014.5
2015-12-27T02:47:49.721Z,1014.5
2015-12-27T02:48:49.645Z,1014.6
2015-12-27T02:49:49.585Z,1014.4
2015-12-27T02:50:49.542Z,1014.4
2015-12-27T02:51:49.497Z,1014.4
2015-12-27T02:52:49.438Z,1014.4
2015-12-27T02:53:49.378Z,1014.5
2015-12-27T02:54:49.334Z,1014.3
2015-12-27T02:55:49.273Z,1014.3
2015-12-27T02:56:49.229Z,1014.3
2015-12-27T02:57:49.167Z,1014.2
2015-12-27T02:58:49.107Z,1014.3
2015-12-27T02:59:49.063Z,1014.3
2015-12-27T03:00:49.019Z,1014.3
2015-12-27T03:01:48.944Z,1014.3
2015-12-27T03:02:48.884Z,1014.2
2015-12-27T03:03:48.855Z,1014.3
2015-12-27T03:04:48.796Z,1014.3
2015-12-27T03:05:48.736Z,1014.4
2015-12-27T03:06:48.879Z,1014.4
2015-12-27T03:07:48.616Z,1014.5
2015-12-27T03:08:48.589Z,1014.3
2015-12-27T03:09:48.512Z,1014.4
2015-12-27T03:10:48.453Z,1014.2
2015-12-27T03:11:48.408Z,1014.4
2015-12-27T03:12:48.350Z,1014.5
2015-12-27T03:13:48.539Z,1014.3
2015-12-27T03:14:48.245Z,1014.3
2015-12-27T03:15:48.201Z,1014.3
2015-12-27T03:16:48.328Z,1014.4
2015-12-27T03:17:48.081Z,1014.4
2015-12-27T03:18:48.037Z,1014.4
2015-12-27T03:19:47.977Z,1014.3
2015-12-27T03:20:48.136Z,1014.4
2015-12-27T03:21:47.858Z,1014.3
2015-12-27T03:22:47.798Z,1014.3
2015-12-27T03:23:47.754Z,1014.4
2015-12-27T03:24:47.928Z,1014.4
2015-12-27T03:25:47.666Z,1014.4
2015-12-27T03:26:47.590Z,1014.4
2015-12-27T03:27:47.531Z,1014.2
2015-12-27T03:28:47.471Z,1014.4
2015-12-27T03:29:47.427Z,1014.4
2015-12-27T03:30:47.383Z,1014.4
2015-12-27T03:31:47.322Z,1014.3
2015-12-27T03:32:47.450Z,1014.4
2015-12-27T03:33:47.407Z,1014.3
2015-12-27T03:34:47.174Z,1014.3
2015-12-27T03:35:47.099Z,1014.4
2015-12-27T03:36:47.040Z,1014.3
2015-12-27T03:37:46.996Z,1014.4
2015-12-27T03:38:46.966Z,1014.4
2015-12-27T03:39:46.876Z,1014.5
2015-12-27T03:40:46.832Z,1014.5
2015-12-27T03:41:46.975Z,1014.5
2015-12-27T03:42:46.713Z,1014.5
2015-12-27T03:43:46.669Z,1014.5
2015-12-27T03:44:46.593Z,1014.5
2015-12-27T03:45:46.549Z,1014.5
2015-12-27T03:46:46.504Z,1014.4
2015-12-27T03:47:46.445Z,1014.6
2015-12-27T03:48:46.384Z,1014.6
2015-12-27T03:49:46.341Z,1014.5
2015-12-27T03:50:46.281Z,1014.6
2015-12-27T03:51:46.221Z,1014.5
2015-12-27T03:52:46.162Z,1014.5
2015-12-27T03:53:46.101Z,1014.5
2015-12-27T03:54:46.054Z,1014.6
2015-12-27T03:55:46.182Z,1014.6
2015-12-27T03:56:45.934Z,1014.6
2015-12-27T03:57:45.890Z,1014.6
2015-12-27T03:58:45.831Z,1014.5
2015-12-27T03:59:45.770Z,1014.5
2015-12-27T04:00:45.727Z,1014.5
2015-12-27T04:01:45.667Z,1014.6
2015-12-27T04:02:45.623Z,1014.5
2015-12-27T04:03:45.564Z,1014.4
2015-12-27T04:04:45.706Z,1014.6
2015-12-27T04:05:45.460Z,1014.4
2015-12-27T04:06:45.634Z,1014.4
2015-12-27T04:07:45.356Z,1014.5
2015-12-27T04:08:45.281Z,1014.5
2015-12-27T04:09:45.237Z,1014.4
2015-12-27T04:10:45.176Z,1014.4
2015-12-27T04:11:45.117Z,1014.4
2015-12-27T04:12:45.056Z,1014.5
2015-12-27T04:13:45.029Z,1014.5
2015-12-27T04:14:44.952Z,1014.4
2015-12-27T04:15:44.908Z,1014.4
2015-12-27T04:16:44.849Z,1014.5
2015-12-27T04:17:44.789Z,1014.5
2015-12-27T04:18:44.932Z,1014.3
2015-12-27T04:19:44.669Z,1014.5
2015-12-27T04:20:44.625Z,1014.5
2015-12-27T04:21:44.581Z,1014.5
2015-12-27T04:22:44.522Z,1014.5
2015-12-27T04:23:44.462Z,1014.4
2015-12-27T04:24:44.402Z,1014.5
2015-12-27T04:25:44.374Z,1014.5
2015-12-27T04:26:44.299Z,1014.6
2015-12-27T04:27:44.238Z,1014.6
2015-12-27T04:28:44.179Z,1014.5
2015-12-27T04:29:44.135Z,1014.5
2015-12-27T04:30:44.090Z,1014.5
2015-12-27T04:31:44.016Z,1014.6
2015-12-27T04:32:43.955Z,1014.5
2015-12-27T04:33:43.927Z,1014.7
2015-12-27T04:34:43.866Z,1014.5
2015-12-27T04:35:43.651Z,1014.6
2015-12-27T04:36:43.763Z,1014.5
2015-12-27T04:37:43.704Z,1014.6
2015-12-27T04:38:43.643Z,1014.5
2015-12-27T04:39:43.600Z,1014.6
2015-12-27T04:40:43.540Z,1014.6
2015-12-27T04:41:43.480Z,1014.6
2015-12-27T04:42:43.436Z,1014.7
2015-12-27T04:43:43.376Z,1014.5
2015-12-27T04:44:43.316Z,1014.6
2015-12-27T04:45:43.257Z,1014.6
2015-12-27T04:46:43.212Z,1014.5
2015-12-27T04:47:43.165Z,1014.6
2015-12-27T04:48:43.107Z,1014.6
2015-12-27T04:49:43.046Z,1014.6
2015-12-27T04:50:43.017Z,1014.6
2015-12-27T04:51:42.942Z,1014.5
2015-12-27T04:52:42.882Z,1014.5
2015-12-27T04:53:42.822Z,1014.6
2015-12-27T04:54:42.778Z,1014.5
2015-12-27T04:55:42.735Z,1014.5
2015-12-27T04:56:42.674Z,1014.4
2015-12-27T04:57:42.599Z,1014.4
2015-12-27T04:58:42.570Z,1014.5
2015-12-27T04:59:42.495Z,1014.5
2015-12-27T05:00:42.451Z,1014.4
2015-12-27T05:01:42.626Z,1014.5
2015-12-27T05:02:42.348Z,1014.4
2015-12-27T05:03:42.288Z,1014.5
2015-12-27T05:04:42.228Z,1014.5
2015-12-27T05:05:42.167Z,1014.5
2015-12-27T05:06:42.139Z,1014.6
2015-12-27T05:07:42.079Z,1014.6
2015-12-27T05:08:42.020Z,1014.6
2015-12-27T05:09:41.960Z,1014.5
2015-12-27T05:10:41.916Z,1014.6
2015-12-27T05:11:41.856Z,1014.6
2015-12-27T05:12:41.797Z,1014.5
2015-12-27T05:13:41.753Z,1014.6
2015-12-27T05:14:41.708Z,1014.5
2015-12-27T05:15:41.648Z,1014.5
2015-12-27T05:16:41.589Z,1014.6
2015-12-27T05:17:41.544Z,1014.5
2015-12-27T05:18:41.500Z,1014.6
2015-12-27T05:19:41.425Z,1014.5
2015-12-27T05:20:41.365Z,1014.5
2015-12-27T05:21:41.322Z,1014.5
2015-12-27T05:22:41.308Z,1014.5
2015-12-27T05:23:41.217Z,1014.6
2015-12-27T05:24:41.172Z,1014.4
2015-12-27T05:25:41.113Z,1014.6
2015-12-27T05:26:41.069Z,1014.6
2015-12-27T05:27:40.994Z,1014.4
2015-12-27T05:28:41.153Z,1014.5
2015-12-27T05:29:40.875Z,1014.6
2015-12-27T05:30:40.846Z,1014.5
2015-12-27T05:31:40.770Z,1014.5
2015-12-27T05:32:39.976Z,1014.5
2015-12-27T05:33:40.667Z,1014.5
2015-12-27T05:34:40.623Z,1014.5
2015-12-27T05:35:40.797Z,1014.5
2015-12-27T05:36:40.502Z,1014.5
2015-12-27T05:37:40.458Z,1014.5
2015-12-27T05:38:40.399Z,1014.5
2015-12-27T05:39:40.542Z,1014.6
2015-12-27T05:40:40.295Z,1014.5
2015-12-27T05:41:40.251Z,1014.5
2015-12-27T05:42:40.172Z,1014.5
2015-12-27T05:43:40.129Z,1014.5
2015-12-27T05:44:40.069Z,1014.6
2015-12-27T05:45:40.041Z,1014.6
2015-12-27T05:46:40.199Z,1014.5
2015-12-27T05:47:40.107Z,1014.5
2015-12-27T05:48:39.846Z,1014.5
2015-12-27T05:49:39.848Z,1014.5
2015-12-27T05:50:39.960Z,1014.6
2015-12-27T05:51:39.682Z,1014.5
2015-12-27T05:52:39.638Z,1014.5
2015-12-27T05:53:39.577Z,1014.5
2015-12-27T05:54:39.549Z,1014.5
2015-12-27T05:55:39.474Z,1014.5
2015-12-27T05:56:39.429Z,1014.5
2015-12-27T05:57:39.354Z,1014.5
2015-12-27T05:58:39.310Z,1014.6
2015-12-27T05:59:39.266Z,1014.5
2015-12-27T06:00:39.393Z,1014.5
2015-12-27T06:01:39.162Z,1014.5
2015-12-27T06:02:39.102Z,1014.5
2015-12-27T06:03:39.059Z,1014.5
2015-12-27T06:04:38.983Z,1014.5
2015-12-27T06:05:38.939Z,1014.5
2015-12-27T06:06:38.879Z,1014.4
2015-12-27T06:07:38.835Z,1014.4
2015-12-27T06:08:38.775Z,1014.4
2015-12-27T06:09:38.715Z,1014.4
2015-12-27T06:10:38.656Z,1014.4
2015-12-27T06:11:38.611Z,1014.5
2015-12-27T06:12:38.568Z,1014.4
2015-12-27T06:13:38.492Z,1014.4
2015-12-27T06:14:38.651Z,1014.3
2015-12-27T06:15:38.388Z,1014.5
2015-12-27T06:16:38.548Z,1014.4
2015-12-27T06:17:38.300Z,1014.5
2015-12-27T06:18:38.239Z,1014.3
2015-12-27T06:19:38.181Z,1014.5
2015-12-27T06:20:38.121Z,1014.4
2015-12-27T06:21:38.076Z,1014.5
2015-12-27T06:22:38.017Z,1014.5
2015-12-27T06:23:37.957Z,1014.5
2015-12-27T06:24:37.897Z,1014.5
2015-12-27T06:25:37.853Z,1014.5
2015-12-27T06:26:37.793Z,1014.5
2015-12-27T06:27:37.750Z,1014.5
2015-12-27T06:28:37.690Z,1014.5
2015-12-27T06:29:37.833Z,1014.5
2015-12-27T06:30:37.586Z,1014.5
2015-12-27T06:31:37.526Z,1014.6
2015-12-27T06:32:37.479Z,1014.5
2015-12-27T06:33:37.403Z,1014.4
2015-12-27T06:34:37.359Z,1014.5
2015-12-27T06:35:37.315Z,1014.6
2015-12-27T06:36:37.442Z,1014.5
2015-12-27T06:37:37.195Z,1014.5
2015-12-27T06:38:37.136Z,1014.5
2015-12-27T06:39:37.280Z,1014.5
2015-12-27T06:40:37.033Z,1014.5
2015-12-27T06:41:36.988Z,1014.4
2015-12-27T06:42:36.913Z,1014.4
2015-12-27T06:43:36.868Z,1014.3
2015-12-27T06:44:36.808Z,1014.4
2015-12-27T06:45:36.764Z,1014.5
2015-12-27T06:46:36.705Z,1014.4
2015-12-27T06:47:36.644Z,1014.4
2015-12-27T06:48:36.600Z,1014.3
2015-12-27T06:49:36.557Z,1014.3
2015-12-27T06:50:36.685Z,1014.4
2015-12-27T06:51:36.422Z,1014.4
2015-12-27T06:52:36.378Z,1014.5
2015-12-27T06:53:36.333Z,1014.4
2015-12-27T06:54:36.258Z,1014.5
2015-12-27T06:55:36.213Z,1014.4
2015-12-27T06:56:36.154Z,1014.5
2015-12-27T06:57:36.125Z,1014.5
2015-12-27T06:58:36.050Z,1014.5
2015-12-27T06:59:35.991Z,1014.4
2015-12-27T07:00:35.946Z,1014.5
2015-12-27T07:01:35.886Z,1014.4
2015-12-27T07:02:36.060Z,1014.4
2015-12-27T07:03:35.767Z,1014.4
2015-12-27T07:04:35.723Z,1014.4
2015-12-27T07:05:35.678Z,1014.4
2015-12-27T07:06:35.619Z,1014.4
2015-12-27T07:07:35.559Z,1014.5
2015-12-27T07:08:35.515Z,1014.4
2015-12-27T07:09:35.455Z,1014.5
2015-12-27T07:10:35.629Z,1014.5
2015-12-27T07:11:35.538Z,1014.5
2015-12-27T07:12:35.307Z,1014.5
2015-12-27T07:13:35.232Z,1014.5
2015-12-27T07:14:35.188Z,1014.4
2015-12-27T07:15:35.128Z,1014.5
2015-12-27T07:16:35.084Z,1014.5
2015-12-27T07:17:35.009Z,1014.6
2015-12-27T07:18:34.965Z,1014.5
2015-12-27T07:19:34.904Z,1014.4
2015-12-27T07:20:34.860Z,1014.4
2015-12-27T07:21:34.785Z,1014.5
2015-12-27T07:22:34.757Z,1014.5
2015-12-27T07:23:34.710Z,1014.5
2015-12-27T07:24:34.665Z,1014.6
2015-12-27T07:25:34.590Z,1014.6
2015-12-27T07:26:34.546Z,1014.6
2015-12-27T07:27:35.251Z,1014.6
2015-12-27T07:28:34.442Z,1014.6
2015-12-27T07:29:34.398Z,1014.6
2015-12-27T07:30:34.323Z,1014.6
2015-12-27T07:31:35.122Z,1014.6
2015-12-27T07:32:34.234Z,1014.6
2015-12-27T07:33:34.362Z,1014.5
2015-12-27T07:34:34.145Z,1014.6
2015-12-27T07:35:34.055Z,1014.6
2015-12-27T07:36:35.120Z,1014.6
2015-12-27T07:37:33.950Z,1014.6
2015-12-27T07:38:33.891Z,1014.6
2015-12-27T07:39:34.644Z,1014.5
2015-12-27T07:40:33.864Z,1014.6
2015-12-27T07:41:33.867Z,1014.6
2015-12-27T07:42:33.887Z,1014.7
2015-12-27T07:43:33.639Z,1014.6
2015-12-27T07:44:33.564Z,1014.6
2015-12-27T07:45:33.504Z,1014.7
2015-12-27T07:46:33.553Z,1014.7
2015-12-27T07:47:33.416Z,1014.7
2015-12-27T07:48:33.450Z,1014.7
2015-12-27T07:49:33.312Z,1014.6
2015-12-27T07:50:33.346Z,1014.7
2015-12-27T07:51:33.317Z,1014.7
2015-12-27T07:52:33.133Z,1014.6
2015-12-27T07:53:33.338Z,1014.6
2015-12-27T07:54:33.028Z,1014.6
2015-12-27T07:55:33.047Z,1014.6
2015-12-27T07:56:32.972Z,1014.6
2015-12-27T07:57:32.865Z,1014.6
2015-12-27T07:58:32.837Z,1014.8
2015-12-27T07:59:32.027Z,1014.5
2015-12-27T08:00:33.061Z,1014.7
2015-12-27T08:01:32.798Z,1014.7
2015-12-27T08:02:32.613Z,1014.7
2015-12-27T08:03:32.553Z,1014.7
2015-12-27T08:04:32.587Z,1014.7
2015-12-27T08:05:32.434Z,1014.7
2015-12-27T08:06:32.390Z,1014.7
2015-12-27T08:07:32.439Z,1014.7
2015-12-27T08:08:32.285Z,1014.6
2015-12-27T08:09:32.460Z,1014.6
2015-12-27T08:10:32.260Z,1014.6
2015-12-27T08:11:32.137Z,1014.7
2015-12-27T08:12:32.141Z,1014.7
2015-12-27T08:13:32.034Z,1014.7
2015-12-27T08:14:31.958Z,1014.7
2015-12-27T08:15:31.915Z,1014.6
2015-12-27T08:16:31.838Z,1014.7
2015-12-27T08:17:31.810Z,1014.6
2015-12-27T08:18:31.751Z,1014.7
2015-12-27T08:19:31.691Z,1014.8
2015-12-27T08:20:31.709Z,1014.6
2015-12-27T08:21:31.584Z,1014.5
2015-12-27T08:22:31.540Z,1014.8
2015-12-27T08:23:31.496Z,1014.7
2015-12-27T08:24:31.436Z,1014.7
2015-12-27T08:25:31.360Z,1014.7
2015-12-27T08:26:31.317Z,1014.7
2015-12-27T08:27:31.256Z,1014.7
2015-12-27T08:28:31.197Z,1014.7
2015-12-27T08:29:31.153Z,1014.6
2015-12-27T08:30:31.109Z,1014.7
2015-12-27T08:31:31.065Z,1014.7
2015-12-27T08:32:31.239Z,1014.7
2015-12-27T08:33:31.132Z,1014.7
2015-12-27T08:34:30.901Z,1014.7
2015-12-27T08:35:30.684Z,1014.6
2015-12-27T08:36:30.766Z,1014.8
2015-12-27T08:37:30.753Z,1014.6
2015-12-27T08:38:30.693Z,1014.7
2015-12-27T08:39:30.930Z,1014.8
2015-12-27T08:40:30.684Z,1014.7
2015-12-27T08:41:30.498Z,1014.6
2015-12-27T08:42:30.454Z,1014.7
2015-12-27T08:43:30.378Z,1014.7
2015-12-27T08:44:30.350Z,1014.8
2015-12-27T08:45:30.306Z,1014.8
2015-12-27T08:46:30.225Z,1014.8
2015-12-27T08:47:30.187Z,1014.6
2015-12-27T08:48:30.100Z,1014.7
2015-12-27T08:49:30.061Z,1014.8
2015-12-27T08:50:29.975Z,1014.7
2015-12-27T08:51:29.926Z,1015
2015-12-27T08:52:29.863Z,1014.7
2015-12-27T08:53:29.878Z,1014.8
2015-12-27T08:54:29.846Z,1014.7
2015-12-27T08:55:29.736Z,1014.8
2015-12-27T08:56:29.674Z,1014.8
2015-12-27T08:57:29.583Z,1015
2015-12-27T08:58:29.537Z,1014.8
2015-12-27T08:59:29.476Z,1014.9
2015-12-27T09:00:29.430Z,1014.9
2015-12-27T09:01:29.370Z,1014.9
2015-12-27T09:02:29.310Z,1014.8
2015-12-27T09:03:29.265Z,1014.8
2015-12-27T09:04:29.222Z,1014.9
2015-12-27T09:05:29.130Z,1015
2015-12-27T09:06:29.085Z,1014.9
2015-12-27T09:07:29.057Z,1014.9
2015-12-27T09:08:29.012Z,1014.8
2015-12-27T09:09:28.967Z,1014.8
2015-12-27T09:10:28.953Z,1014.9
2015-12-27T09:11:28.828Z,1015
2015-12-27T09:12:28.988Z,1015.1
2015-12-27T09:13:28.773Z,1015
2015-12-27T09:14:28.711Z,1014.9
2015-12-27T09:15:28.606Z,1015
2015-12-27T09:16:28.545Z,1015
2015-12-27T09:17:28.753Z,1015.1
2015-12-27T09:18:28.442Z,1015
2015-12-27T09:19:28.397Z,1015
2015-12-27T09:20:28.339Z,1015
2015-12-27T09:21:28.716Z,1015
2015-12-27T09:22:28.233Z,1015
2015-12-27T09:23:28.206Z,1014.9
2015-12-27T09:24:28.333Z,1014.9
2015-12-27T09:25:28.274Z,1014.9
2015-12-27T09:26:28.026Z,1014.9
2015-12-27T09:27:27.967Z,1014.8
2015-12-27T09:28:27.907Z,1014.9
2015-12-27T09:29:27.863Z,1015
2015-12-27T09:30:27.819Z,1015.1
2015-12-27T09:31:27.758Z,1015.1
2015-12-27T09:32:27.777Z,1015.1
2015-12-27T09:33:27.717Z,1014.9
2015-12-27T09:34:27.674Z,1015
2015-12-27T09:35:27.535Z,1015
2015-12-27T09:36:27.475Z,1015
2015-12-27T09:37:27.650Z,1015
2015-12-27T09:38:27.388Z,1015
2015-12-27T09:39:27.312Z,1015
2015-12-27T09:40:27.486Z,1014.9
2015-12-27T09:41:27.224Z,1015
2015-12-27T09:42:27.180Z,1014.9
2015-12-27T09:43:27.104Z,1014.9
2015-12-27T09:44:27.263Z,1015
2015-12-27T09:45:27.297Z,1014.9
2015-12-27T09:46:41.081Z,1015
2015-12-27T09:47:26.927Z,1015
2015-12-27T09:48:26.837Z,1015
2015-12-27T09:49:26.793Z,1015.1
2015-12-27T09:50:26.999Z,1015.1
2015-12-27T09:51:26.704Z,1015.1
2015-12-27T09:52:26.644Z,1015.1
2015-12-27T09:53:26.663Z,1015
2015-12-27T09:54:26.571Z,1015.1
2015-12-27T09:55:26.574Z,1015.1
2015-12-27T09:56:26.937Z,1015
2015-12-27T09:57:26.377Z,1015
2015-12-27T10:00:26.213Z,1015.2
2015-12-27T10:01:25.419Z,1015
2015-12-27T10:02:26.296Z,1015.2
2015-12-27T10:03:26.065Z,1015.1
2015-12-27T10:04:26.006Z,1015.1
2015-12-27T10:05:25.943Z,1015.1
2015-12-27T10:06:25.884Z,1015.1
2015-12-27T10:07:25.823Z,1015.1
2015-12-27T10:08:25.779Z,1015
2015-12-27T10:09:25.720Z,1015.2
2015-12-27T10:10:40.397Z,1015.2
2015-12-27T10:11:25.662Z,1015.2
2015-12-27T10:12:25.618Z,1015.1
2015-12-27T10:13:25.699Z,1015.1
2015-12-27T10:14:25.764Z,1015.1
2015-12-27T10:15:25.408Z,1015
2015-12-27T10:16:25.348Z,1015.1
2015-12-27T10:17:25.289Z,1015.1
2015-12-27T10:18:25.244Z,1015.2
2015-12-27T10:19:25.184Z,1015.2
2015-12-27T10:20:25.140Z,1015.1
2015-12-27T10:21:25.081Z,1015.1
2015-12-27T10:22:25.020Z,1015.1
2015-12-27T10:23:24.976Z,1015.1
2015-12-27T10:24:24.948Z,1015
2015-12-27T10:25:24.856Z,1015.1
2015-12-27T10:26:24.797Z,1015.1
2015-12-27T10:27:24.769Z,1015.1
2015-12-27T10:28:23.958Z,1015.1
2015-12-27T10:29:24.727Z,1015.1
2015-12-27T10:30:24.636Z,1015.1
2015-12-27T10:31:24.638Z,1015
2015-12-27T10:32:24.610Z,1015
2015-12-27T10:33:24.535Z,1015.2
2015-12-27T10:34:24.381Z,1015.1
2015-12-27T10:35:24.353Z,1015.2
2015-12-27T10:36:24.308Z,1015.2
2015-12-27T10:37:24.233Z,1015.1
2015-12-27T10:38:24.174Z,1015.3
2015-12-27T10:39:24.145Z,1015.1
2015-12-27T10:40:24.288Z,1015.1
2015-12-27T10:41:24.213Z,1015.2
2015-12-27T10:42:23.966Z,1015.1
2015-12-27T10:43:23.921Z,1015.2
2015-12-27T10:44:23.863Z,1015.1
2015-12-27T10:45:23.802Z,1015.1
2015-12-27T10:46:23.758Z,1015.3
2015-12-27T10:47:23.932Z,1015.2
2015-12-27T10:48:23.638Z,1015.2
2015-12-27T10:49:23.594Z,1015.1
2015-12-27T10:50:23.550Z,1015.2
2015-12-27T10:51:23.507Z,1015.2
2015-12-27T10:52:23.743Z,1015.2
2015-12-27T10:53:23.371Z,1015.1
2015-12-27T10:54:23.327Z,1015.3
2015-12-27T10:55:23.282Z,1015.2
2015-12-27T10:56:23.270Z,1015.3
2015-12-27T10:57:23.288Z,1015.2
2015-12-27T10:58:23.104Z,1015.2
2015-12-27T10:59:23.168Z,1015.2
2015-12-27T11:00:23.059Z,1015.2
2015-12-27T11:01:22.968Z,1015.2
2015-12-27T11:02:22.924Z,1015.2
2015-12-27T11:03:22.865Z,1015.1
2015-12-27T11:04:22.804Z,1015.2
2015-12-27T11:05:22.745Z,1015.2
2015-12-27T11:06:22.670Z,1015.2
2015-12-27T11:07:22.656Z,1015.2
2015-12-27T11:08:22.565Z,1015.3
2015-12-27T11:09:22.788Z,1015.3
2015-12-27T11:10:22.477Z,1015.2
2015-12-27T11:11:22.418Z,1015.3
2015-12-27T11:12:22.357Z,1015.3
2015-12-27T11:13:22.314Z,1015.2
2015-12-27T11:14:22.317Z,1015.1
2015-12-27T11:15:22.335Z,1015.2
2015-12-27T11:16:22.244Z,1015.2
2015-12-27T11:17:22.090Z,1015.1
2015-12-27T11:18:22.046Z,1015.1
2015-12-27T11:19:21.987Z,1015.2
2015-12-27T11:20:21.927Z,1015.1
2015-12-27T11:21:21.868Z,1015.2
2015-12-27T11:22:21.839Z,1015.1
2015-12-27T11:23:21.779Z,1015.1
2015-12-27T11:24:22.226Z,1015.2
2015-12-27T11:25:21.760Z,1015.2
2015-12-27T11:26:21.699Z,1015.3
2015-12-27T11:27:21.807Z,1015.4
2015-12-27T11:28:21.544Z,1015.3
2015-12-27T11:29:21.453Z,1015.3
2015-12-27T11:30:21.377Z,1015.3
2015-12-27T11:31:21.380Z,1015.3
2015-12-27T11:32:21.288Z,1015.3
2015-12-27T11:33:21.449Z,1015.4
2015-12-27T11:34:21.248Z,1015.3
2015-12-27T11:35:21.563Z,1015.4
2015-12-27T11:36:21.066Z,1015.3
2015-12-27T11:37:21.038Z,1015.3
2015-12-27T11:38:20.977Z,1015.2
2015-12-27T11:39:21.105Z,1015.2
2015-12-27T11:40:20.842Z,1015.3
2015-12-27T11:41:20.798Z,1015.1
2015-12-27T11:42:20.751Z,1015.1
2015-12-27T11:43:20.691Z,1015.2
2015-12-27T11:44:20.648Z,1015.1
2015-12-27T11:45:20.588Z,1015.2
2015-12-27T11:46:20.543Z,1015.1
2015-12-27T11:47:20.718Z,1015.2
2015-12-27T11:48:20.470Z,1015.1
2015-12-27T11:49:20.490Z,1015
2015-12-27T11:50:20.415Z,1015.2
2015-12-27T11:51:20.495Z,1015
2015-12-27T11:52:20.623Z,1015
2015-12-27T11:53:20.173Z,1015
2015-12-27T11:54:20.143Z,1015
2015-12-27T11:55:20.053Z,1015
2015-12-27T11:56:19.992Z,1015
2015-12-27T11:57:19.949Z,1015
2015-12-27T11:58:19.154Z,1015
2015-12-27T11:59:19.861Z,1015.1
2015-12-27T12:00:19.800Z,1015.1
2015-12-27T12:01:19.726Z,1015.2
2015-12-27T12:02:19.713Z,1014.9
2015-12-27T12:03:19.637Z,1015.1
2015-12-27T12:04:19.609Z,1015
2015-12-27T12:05:19.534Z,1015
2015-12-27T12:06:19.474Z,1015.1
2015-12-27T12:07:19.539Z,1015
2015-12-27T12:08:19.448Z,1014.9
2015-12-27T12:09:19.309Z,1015
2015-12-27T12:10:19.265Z,1014.9
2015-12-27T12:11:19.222Z,1014.9
2015-12-27T12:12:19.178Z,1015
2015-12-27T12:13:19.102Z,1015
2015-12-27T12:14:19.073Z,1014.9
2015-12-27T12:15:18.998Z,1015
2015-12-27T12:16:18.954Z,1014.8
2015-12-27T12:17:19.082Z,1014.9
2015-12-27T12:18:18.835Z,1014.9
2015-12-27T12:19:18.775Z,1015
2015-12-27T12:20:18.965Z,1014.8
2015-12-27T12:21:18.686Z,1014.9
2015-12-27T12:22:18.830Z,1014.8
2015-12-27T12:23:18.583Z,1014.9
2015-12-27T12:24:18.520Z,1014.9
2015-12-27T12:25:18.475Z,1014.9
2015-12-27T12:26:18.478Z,1015
2015-12-27T12:27:18.434Z,1014.9
2015-12-27T12:28:18.406Z,1014.9
2015-12-27T12:29:18.299Z,1014.9
2015-12-27T12:30:18.224Z,1015
2015-12-27T12:31:18.164Z,1014.9
2015-12-27T12:32:18.105Z,1014.9
2015-12-27T12:33:18.061Z,1014.9